This is the latest recevied weather packets stored in our database for station/object WX5RP. If no packets are shown the sender has not sent any weather packets the latest 10 day(s).
| Time | Temp. | Humidity | Pressure | Rain* | Wind** | Luminosity | Snow |
|---|---|---|---|---|---|---|---|
| 1787977816 | 15.56° C | 48% | 1016.8 hPa | 0 mm | - | 0 W/m² | - |
| 1787977216 | 17.22° C | 40% | 1016.4 hPa | 0 mm | - | 0 W/m² | - |
| 1787976615 | 18.33° C | 36% | 1016.7 hPa | 0 mm | - | 0 W/m² | - |
| 1787976016 | 18.89° C | 34% | 1016.7 hPa | 0 mm | - | 0 W/m² | - |
| 1787975416 | 18.89° C | 35% | 1016.3 hPa | 0 mm | - | 0 W/m² | - |
| 1787974816 | 18.33° C | 37% | 1015.9 hPa | 0 mm | - | 0 W/m² | - |
| 1787974216 | 19.44° C | 35% | 1015.9 hPa | 0 mm | - | 0 W/m² | - |
| 1787973620 | 20° C | 34% | 1015.3 hPa | 0 mm | - | 0 W/m² | - |
| 1787973016 | 20° C | 35% | 1016.1 hPa | 0 mm | - | 0 W/m² | - |
| 1787972416 | 21.11° C | 34% | 1016.2 hPa | 0 mm | - | 0 W/m² | - |
| 1787971815 | 21.11° C | 34% | 1015.6 hPa | 0 mm | - | 0 W/m² | - |
| 1787971216 | 22.22° C | 32% | 1015 hPa | 0 mm | - | 8 W/m² | - |
| 1787970615 | 22.78° C | 31% | 1015 hPa | 0 mm | - | 13 W/m² | - |
| 1787970015 | 23.33° C | 30% | 1015.1 hPa | 0 mm | - | 19 W/m² | - |
| 1787969415 | 23.89° C | 30% | 1015.1 hPa | 0 mm | - | 25 W/m² | - |
| 1787968815 | 24.44° C | 29% | 1015.4 hPa | 0 mm | - | 30 W/m² | - |
| 1787968215 | 25° C | 28% | 1015 hPa | 0 mm | - | 41 W/m² | - |
| 1787967617 | 25.56° C | 27% | 1015.2 hPa | 0 mm | - | 39 W/m² | - |
| 1787967017 | 26.11° C | 26% | 1015.4 hPa | 0 mm | - | 43 W/m² | - |
| 1787966418 | 26.67° C | 26% | 1014.9 hPa | 0 mm | - | 59 W/m² | - |
| 1787965817 | 26.67° C | 24% | 1014.6 hPa | 0 mm | - | 76 W/m² | - |
| 1787965217 | 27.22° C | 24% | 1014.9 hPa | 0 mm | - | 198 W/m² | - |
| 1787964617 | 27.22° C | 23% | 1014.7 hPa | 0 mm | - | 254 W/m² | - |
| 1787964017 | 27.78° C | 22% | 1014.7 hPa | 0 mm | - | 279 W/m² | - |
| 1787963417 | 27.78° C | 19% | 1014.6 hPa | 0 mm | - | 387 W/m² | - |
* Rain latest hour (hover to see other rain measurements)
** Current wind speed in m/s (hover to see current wind gust speed)